Terminal Aerodrome Forecast
Issued by NWS Duluth, MN

Home | Current Version | Previous Version | Text Only | Print | Product List | Glossary On
Versions: 1 2 3 4 5 6 7 8 9 10 11 12 13 14 15 16 17 18 19 20 21 22 23 24 25 26 27 28 29 30 31
000
FTUS43 KDLH 301600 AAC
TAFINL
TAF AMD
KINL 301644Z 3017/0112 14008KT P6SM OVC010
     FM301800 14007KT P6SM BKN015
     FM302000 13011KT P6SM SCT020
     FM010300 13008KT P6SM BKN020
     FM010500 13009KT P6SM OVC015
     FM010800 13010KT P6SM VCSH OVC008=

USA.gov is the U.S. government's official web portal to all federal, state and local government web resources and services.